createdAt,value
2018-08-20T00:01:53.768Z,5.90
2018-08-20T00:04:21.224Z,6.50
2018-08-20T00:06:54.221Z,6.43
2018-08-20T00:09:34.507Z,5.70
2018-08-20T00:12:02.419Z,6.63
2018-08-20T00:14:30.065Z,6.27
2018-08-20T00:16:58.296Z,6.70
2018-08-20T00:19:25.812Z,6.17
2018-08-20T00:21:53.384Z,6.77
2018-08-20T00:24:22.536Z,6.63
2018-08-20T00:26:50.054Z,6.20
2018-08-20T00:29:17.584Z,7.23
2018-08-20T00:31:45.104Z,6.83
2018-08-20T00:34:12.967Z,6.43
2018-08-20T00:36:40.665Z,6.60
2018-08-20T00:39:10.016Z,6.77
2018-08-20T00:41:37.584Z,6.70
2018-08-20T00:44:09.859Z,6.80
2018-08-20T00:46:37.509Z,6.67
2018-08-20T00:49:05.165Z,6.70
2018-08-20T00:51:33.008Z,6.87
2018-08-20T00:54:00.466Z,6.60
2018-08-20T00:56:28.041Z,6.27
2018-08-20T00:58:55.497Z,6.07
2018-08-20T01:01:23.048Z,7.10
2018-08-20T01:03:50.692Z,6.70
2018-08-20T01:06:18.155Z,7.33
2018-08-20T01:08:45.660Z,7.10
2018-08-20T01:11:13.228Z,6.63
2018-08-20T01:13:40.888Z,6.40
2018-08-20T01:16:08.461Z,7.03
2018-08-20T01:18:37.254Z,6.90
2018-08-20T01:21:05.283Z,6.77
2018-08-20T01:23:33.009Z,7.13
2018-08-20T01:26:01.122Z,6.33
2018-08-20T01:28:38.954Z,6.90
2018-08-20T01:31:06.835Z,6.57
2018-08-20T01:33:34.748Z,7.20
2018-08-20T01:36:02.372Z,7.30
2018-08-20T01:38:29.887Z,6.97
2018-08-20T01:40:57.404Z,7.10
2018-08-20T01:43:24.892Z,6.80
2018-08-20T01:45:52.365Z,7.00
2018-08-20T01:48:19.820Z,6.37
2018-08-20T01:50:47.356Z,6.87
2018-08-20T01:53:14.855Z,7.20
2018-08-20T01:55:44.101Z,7.37
2018-08-20T01:58:11.767Z,7.03
2018-08-20T02:00:39.391Z,6.87
2018-08-20T02:03:07.245Z,6.73
2018-08-20T02:05:35.583Z,7.37
2018-08-20T02:08:03.373Z,6.97
2018-08-20T02:10:30.898Z,6.90
2018-08-20T02:12:58.434Z,7.00
2018-08-20T02:15:25.918Z,7.23
2018-08-20T02:17:53.693Z,7.20
2018-08-20T02:20:21.231Z,7.60
2018-08-20T02:22:48.844Z,7.13
2018-08-20T02:25:16.341Z,7.57
2018-08-20T02:27:43.923Z,7.37
2018-08-20T02:30:11.720Z,7.47
2018-08-20T02:32:39.360Z,7.60
2018-08-20T02:35:07.531Z,7.43
2018-08-20T02:37:40.817Z,7.97
2018-08-20T02:40:09.435Z,7.37
2018-08-20T02:42:37.264Z,7.00
2018-08-20T02:45:06.973Z,7.67
2018-08-20T02:47:34.895Z,8.17
2018-08-20T02:50:02.797Z,6.97
2018-08-20T02:52:30.377Z,7.77
2018-08-20T02:54:57.838Z,7.73
2018-08-20T02:57:25.355Z,7.63
2018-08-20T02:59:52.825Z,7.90
2018-08-20T03:02:20.373Z,7.73
2018-08-20T03:04:47.900Z,8.30
2018-08-20T03:07:15.804Z,8.30
2018-08-20T03:09:43.615Z,8.60
2018-08-20T03:12:11.385Z,8.43
2018-08-20T03:14:39.317Z,8.17
2018-08-20T03:17:07.615Z,8.33
2018-08-20T03:19:36.056Z,9.47
2018-08-20T03:22:04.441Z,8.37
2018-08-20T03:24:32.142Z,7.73
2018-08-20T03:26:59.853Z,8.00
2018-08-20T03:29:27.373Z,8.10
2018-08-20T03:31:54.885Z,7.77
2018-08-20T03:34:22.356Z,8.23
2018-08-20T03:36:49.823Z,8.20
2018-08-20T03:39:17.340Z,8.00
2018-08-20T03:41:44.809Z,8.07
2018-08-20T03:44:12.560Z,7.47
2018-08-20T03:46:40.445Z,8.33
2018-08-20T03:49:08.420Z,8.10
2018-08-20T03:51:36.234Z,8.03
2018-08-20T03:54:04.160Z,8.67
2018-08-20T03:56:31.707Z,8.30
2018-08-20T03:58:59.308Z,8.30
2018-08-20T04:01:26.772Z,8.50
2018-08-20T04:03:54.708Z,8.03
2018-08-20T04:06:22.193Z,8.03
2018-08-20T04:08:49.620Z,9.50
2018-08-20T04:11:17.208Z,8.90
2018-08-20T04:13:45.278Z,9.27
2018-08-20T04:16:13.362Z,9.27
2018-08-20T04:19:44.321Z,9.10
2018-08-20T04:22:12.024Z,9.10
2018-08-20T04:24:39.766Z,8.77
2018-08-20T04:27:07.735Z,9.63
2018-08-20T04:29:35.704Z,9.07
2018-08-20T04:32:03.818Z,9.10
2018-08-20T04:34:31.426Z,8.53
2018-08-20T04:36:58.944Z,9.10
2018-08-20T04:39:26.452Z,8.93
2018-08-20T04:41:53.987Z,8.70
2018-08-20T04:44:21.478Z,10.70
2018-08-20T04:46:49.027Z,8.90
2018-08-20T04:49:16.500Z,9.23
2018-08-20T04:51:44.004Z,8.80
2018-08-20T04:54:11.969Z,8.53
2018-08-20T04:56:39.725Z,8.97
2018-08-20T04:59:07.917Z,8.80
2018-08-20T05:01:35.980Z,9.03
2018-08-20T05:04:04.722Z,9.00
2018-08-20T05:06:35.555Z,8.73
2018-08-20T05:09:04.933Z,9.00
2018-08-20T05:11:33.490Z,9.27
2018-08-20T05:14:01.077Z,9.40
2018-08-20T05:16:28.536Z,8.83
2018-08-20T05:18:59.762Z,9.73
2018-08-20T05:21:27.155Z,8.80
2018-08-20T05:23:54.636Z,8.50
2018-08-20T05:26:22.188Z,9.00
2018-08-20T05:28:49.685Z,8.80
2018-08-20T05:31:17.169Z,9.10
2018-08-20T05:33:45.271Z,8.47
2018-08-20T05:36:13.561Z,8.73
2018-08-20T05:38:41.540Z,9.03
2018-08-20T05:41:10.019Z,8.60
2018-08-20T05:43:38.486Z,8.40
2018-08-20T05:46:06.954Z,8.60
2018-08-20T05:48:35.535Z,8.80
2018-08-20T05:51:04.022Z,8.90
2018-08-20T05:53:32.040Z,8.10
2018-08-20T05:56:00.172Z,8.30
2018-08-20T05:58:27.844Z,9.20
2018-08-20T06:00:55.916Z,8.10
2018-08-20T06:03:23.936Z,8.90
2018-08-20T06:05:51.654Z,8.60
2018-08-20T06:08:19.466Z,8.30
2018-08-20T06:10:47.370Z,8.23
2018-08-20T06:13:15.221Z,7.57
2018-08-20T06:15:43.222Z,8.07
2018-08-20T06:18:11.375Z,7.93
2018-08-20T06:20:39.648Z,7.87
2018-08-20T06:23:07.764Z,7.90
2018-08-20T06:25:35.963Z,8.33
2018-08-20T06:28:04.212Z,7.40
2018-08-20T06:30:32.246Z,7.40
2018-08-20T06:33:00.182Z,7.10
2018-08-20T06:35:28.050Z,6.60
2018-08-20T06:37:56.029Z,7.20
2018-08-20T06:40:23.932Z,6.93
2018-08-20T06:42:51.887Z,6.90
2018-08-20T06:45:19.884Z,6.47
2018-08-20T06:47:47.734Z,6.90
2018-08-20T06:50:15.999Z,6.50
2018-08-20T06:52:44.654Z,6.73
2018-08-20T06:55:13.830Z,7.90
2018-08-20T06:57:42.677Z,6.23
2018-08-20T07:00:11.603Z,6.40
2018-08-20T07:02:40.006Z,5.97
2018-08-20T07:05:08.317Z,5.80
2018-08-20T07:07:37.478Z,5.20
2018-08-20T07:10:08.229Z,6.10
2018-08-20T07:12:36.541Z,5.70
2018-08-20T07:15:05.230Z,6.40
2018-08-20T07:17:33.827Z,5.67
2018-08-20T07:20:01.624Z,5.67
2018-08-20T07:22:29.545Z,5.67
2018-08-20T07:24:57.480Z,5.40
2018-08-20T07:27:25.601Z,5.70
2018-08-20T07:29:53.483Z,6.50
2018-08-20T07:32:21.590Z,7.50
2018-08-20T07:34:49.356Z,6.50
2018-08-20T07:37:17.616Z,6.37
2018-08-20T07:39:47.665Z,6.80
2018-08-20T07:42:15.678Z,6.90
2018-08-20T07:44:44.429Z,6.93
2018-08-20T07:47:12.554Z,6.57
2018-08-20T07:49:40.496Z,7.67
2018-08-20T07:52:09.724Z,7.60
2018-08-20T07:54:38.366Z,7.63
2018-08-20T07:57:07.805Z,7.30
2018-08-20T07:59:36.146Z,7.37
2018-08-20T08:02:04.344Z,7.00
2018-08-20T08:04:32.879Z,7.70
2018-08-20T08:07:00.890Z,7.90
2018-08-20T08:09:28.701Z,7.63
2018-08-20T08:11:56.577Z,7.83
2018-08-20T08:14:24.322Z,7.23
2018-08-20T08:16:52.209Z,8.03
2018-08-20T08:19:20.175Z,7.87
2018-08-20T08:21:47.943Z,8.20
2018-08-20T08:24:15.866Z,7.27
2018-08-20T08:26:43.954Z,7.70
2018-08-20T08:29:11.934Z,8.30
2018-08-20T08:31:39.838Z,8.30
2018-08-20T08:34:07.651Z,7.60
2018-08-20T08:36:35.871Z,7.90
2018-08-20T08:39:05.956Z,8.40
2018-08-20T08:41:34.122Z,8.40
2018-08-20T08:44:02.018Z,7.90
2018-08-20T08:46:29.880Z,8.90
2018-08-20T08:48:57.752Z,8.67
2018-08-20T08:51:25.562Z,8.27
2018-08-20T08:53:53.373Z,8.77
2018-08-20T08:56:21.233Z,8.00
2018-08-20T08:58:49.184Z,8.80
2018-08-20T09:01:16.862Z,8.10
2018-08-20T09:03:44.863Z,8.63
2018-08-20T09:06:12.773Z,7.97
2018-08-20T09:08:40.634Z,8.37
2018-08-20T09:11:08.565Z,8.57
2018-08-20T09:13:36.787Z,9.63
2018-08-20T09:16:04.909Z,8.33
2018-08-20T09:18:32.835Z,7.93
2018-08-20T09:21:00.702Z,8.90
2018-08-20T09:23:28.645Z,8.13
2018-08-20T09:25:56.589Z,8.13
2018-08-20T09:28:24.566Z,8.53
2018-08-20T09:30:52.390Z,8.40
2018-08-20T09:33:20.577Z,7.77
2018-08-20T09:35:48.540Z,7.60
2018-08-20T09:38:16.550Z,7.63
2018-08-20T09:40:44.514Z,8.00
2018-08-20T09:43:12.573Z,8.10
2018-08-20T09:45:40.633Z,8.37
2018-08-20T09:48:08.776Z,7.80
2018-08-20T09:50:36.943Z,8.17
2018-08-20T09:53:06.286Z,7.43
2018-08-20T09:55:34.240Z,7.83
2018-08-20T09:58:02.227Z,7.53
2018-08-20T10:00:36.025Z,6.90
2018-08-20T10:03:04.592Z,7.53
2018-08-20T10:05:32.432Z,7.67
2018-08-20T10:08:00.374Z,7.73
2018-08-20T10:10:28.456Z,7.30
2018-08-20T10:12:56.403Z,7.20
2018-08-20T10:15:24.256Z,7.10
2018-08-20T10:17:52.286Z,7.40
2018-08-20T10:20:20.114Z,7.20
2018-08-20T10:22:47.917Z,7.50
2018-08-20T10:25:15.802Z,7.37
2018-08-20T10:27:43.746Z,7.00
2018-08-20T10:30:12.504Z,7.10
2018-08-20T10:32:40.925Z,7.23
2018-08-20T10:35:09.450Z,7.00
2018-08-20T10:37:37.685Z,7.00
2018-08-20T10:40:07.223Z,6.53
2018-08-20T10:42:35.669Z,7.30
2018-08-20T10:45:10.110Z,6.60
2018-08-20T10:47:38.201Z,7.23
2018-08-20T10:50:06.882Z,6.67
2018-08-20T10:52:35.288Z,6.80
2018-08-20T10:55:03.870Z,7.77
2018-08-20T10:57:31.925Z,7.50
2018-08-20T10:59:59.662Z,7.73
2018-08-20T11:02:27.530Z,7.00
2018-08-20T11:04:55.471Z,6.37
2018-08-20T11:07:23.937Z,6.87
2018-08-20T11:09:51.756Z,7.77
2018-08-20T11:12:19.623Z,6.77
2018-08-20T11:14:47.671Z,7.40
2018-08-20T11:17:15.553Z,6.90
2018-08-20T11:19:43.805Z,6.90
2018-08-20T11:22:11.943Z,7.17
2018-08-20T11:24:40.428Z,6.77
2018-08-20T11:27:08.875Z,7.30
2018-08-20T11:29:37.104Z,6.80
2018-08-20T11:32:05.413Z,6.50
2018-08-20T11:34:33.492Z,6.47
2018-08-20T11:37:01.479Z,6.67
2018-08-20T11:39:29.536Z,6.40
2018-08-20T11:41:57.356Z,6.40
2018-08-20T11:44:25.448Z,6.60
2018-08-20T11:46:53.610Z,6.70
2018-08-20T11:49:21.686Z,6.47
2018-08-20T11:51:49.577Z,7.13
2018-08-20T11:54:17.700Z,6.93
2018-08-20T11:56:45.913Z,7.97
2018-08-20T11:59:13.980Z,6.93
2018-08-20T12:01:41.906Z,7.13
2018-08-20T12:04:10.208Z,7.50
2018-08-20T12:06:38.469Z,7.67
2018-08-20T12:09:06.978Z,7.23
2018-08-20T12:11:35.490Z,7.23
2018-08-20T12:14:03.789Z,7.30
2018-08-20T12:16:31.768Z,7.60
2018-08-20T12:18:59.714Z,7.70
2018-08-20T12:21:27.634Z,8.70
2018-08-20T12:23:55.464Z,8.07
2018-08-20T12:26:30.042Z,8.53
2018-08-20T12:28:58.261Z,8.60
2018-08-20T12:31:26.225Z,8.57
2018-08-20T12:33:54.198Z,8.53
2018-08-20T12:36:22.153Z,8.40
2018-08-20T12:38:50.161Z,8.20
2018-08-20T12:41:18.083Z,8.53
2018-08-20T12:43:46.060Z,8.30
2018-08-20T12:46:18.032Z,8.90
2018-08-20T12:48:47.143Z,7.90
2018-08-20T12:51:14.997Z,8.57
2018-08-20T12:53:43.316Z,8.50
2018-08-20T12:56:11.601Z,8.23
2018-08-20T12:58:45.410Z,8.27
2018-08-20T13:01:13.740Z,8.20
2018-08-20T13:03:42.070Z,7.83
2018-08-20T13:06:10.520Z,8.33
2018-08-20T13:08:38.673Z,8.20
2018-08-20T13:11:07.115Z,8.03
2018-08-20T13:13:35.591Z,7.90
2018-08-20T13:16:04.102Z,8.20
2018-08-20T13:18:32.181Z,8.37
2018-08-20T13:21:00.480Z,8.50
2018-08-20T13:23:28.425Z,8.80
2018-08-20T13:25:56.299Z,8.07
2018-08-20T13:28:24.180Z,7.80
2018-08-20T13:30:52.047Z,7.93
2018-08-20T13:33:20.038Z,8.10
2018-08-20T13:35:48.737Z,7.97
2018-08-20T13:38:16.729Z,8.57
2018-08-20T13:40:44.621Z,7.97
2018-08-20T13:43:12.790Z,7.73
2018-08-20T13:45:41.015Z,8.40
2018-08-20T13:48:09.582Z,7.77
2018-08-20T13:50:37.866Z,7.30
2018-08-20T13:53:06.542Z,7.70
2018-08-20T13:55:34.825Z,7.80
2018-08-20T13:58:03.126Z,7.83
2018-08-20T14:00:31.134Z,7.67
2018-08-20T14:02:59.110Z,7.23
2018-08-20T14:05:27.118Z,8.20
2018-08-20T14:07:55.098Z,8.10
2018-08-20T14:10:22.887Z,8.00
2018-08-20T14:12:50.815Z,7.80
2018-08-20T14:15:18.737Z,7.97
2018-08-20T14:17:46.684Z,8.27
2018-08-20T14:20:15.795Z,7.90
2018-08-20T14:22:44.565Z,8.17
2018-08-20T14:25:12.642Z,7.80
2018-08-20T14:27:40.797Z,7.93
2018-08-20T14:30:10.802Z,8.23
2018-08-20T14:32:41.901Z,8.23
2018-08-20T14:35:10.532Z,7.70
2018-08-20T14:37:39.434Z,7.80
2018-08-20T14:40:13.876Z,8.27
2018-08-20T14:42:44.299Z,7.60
2018-08-20T14:45:13.762Z,8.47
2018-08-20T14:47:43.447Z,7.93
2018-08-20T14:50:14.003Z,7.50
2018-08-20T14:52:42.697Z,7.80
2018-08-20T14:55:11.482Z,7.83
2018-08-20T14:57:39.908Z,7.60
2018-08-20T15:00:11.191Z,8.33
2018-08-20T15:02:39.667Z,8.17
2018-08-20T15:05:08.599Z,8.40
2018-08-20T15:07:37.074Z,8.20
2018-08-20T15:10:06.622Z,7.77
2018-08-20T15:12:35.258Z,8.50
2018-08-20T15:15:03.607Z,7.77
2018-08-20T15:17:31.561Z,7.60
2018-08-20T15:20:06.828Z,8.00
2018-08-20T15:22:36.093Z,7.77
2018-08-20T15:25:04.693Z,8.17
2018-08-20T15:27:33.256Z,8.80
2018-08-20T15:30:01.194Z,8.07
2018-08-20T15:32:29.114Z,8.40
2018-08-20T15:34:57.037Z,8.27
2018-08-20T15:37:25.036Z,8.50
2018-08-20T15:39:52.936Z,8.87
2018-08-20T15:42:21.079Z,9.33
2018-08-20T15:44:49.146Z,9.77
2018-08-20T15:47:17.442Z,9.50
2018-08-20T15:49:45.847Z,9.20
2018-08-20T15:52:14.276Z,9.37
2018-08-20T15:54:42.795Z,10.10
2018-08-20T15:57:10.995Z,10.57
2018-08-20T15:59:39.361Z,10.60
2018-08-20T16:02:07.848Z,9.97
2018-08-20T16:04:36.461Z,11.37
2018-08-20T16:07:05.693Z,10.60
2018-08-20T16:09:34.500Z,10.57
2018-08-20T16:12:02.613Z,10.20
2018-08-20T16:14:30.826Z,10.20
2018-08-20T16:16:58.756Z,10.27
2018-08-20T16:19:27.039Z,10.17
2018-08-20T16:21:54.985Z,10.70
2018-08-20T16:24:23.034Z,10.03
2018-08-20T16:26:51.003Z,9.57
2018-08-20T16:29:19.065Z,8.80
2018-08-20T16:31:48.466Z,8.23
2018-08-20T16:34:16.528Z,8.63
2018-08-20T16:36:45.992Z,8.93
2018-08-20T16:39:14.464Z,8.03
2018-08-20T16:41:42.613Z,9.00
2018-08-20T16:44:11.385Z,7.60
2018-08-20T16:46:39.833Z,7.40
2018-08-20T16:49:09.760Z,7.93
2018-08-20T16:51:38.438Z,7.67
2018-08-20T16:54:08.254Z,7.03
2018-08-20T16:56:37.431Z,7.23
2018-08-20T16:59:11.798Z,7.50
2018-08-20T17:01:40.354Z,6.70
2018-08-20T17:04:23.792Z,7.50
2018-08-20T17:06:52.006Z,6.77
2018-08-20T17:09:20.013Z,7.53
2018-08-20T17:11:48.154Z,6.90
2018-08-20T17:14:16.268Z,6.47
2018-08-20T17:16:44.541Z,6.73
2018-08-20T17:19:13.054Z,6.37
2018-08-20T17:21:41.007Z,6.63
2018-08-20T17:24:09.582Z,6.73
2018-08-20T17:26:38.856Z,7.03
2018-08-20T17:29:10.937Z,7.10
2018-08-20T17:31:39.716Z,7.20
2018-08-20T17:34:07.914Z,6.57
2018-08-20T17:36:39.738Z,6.73
2018-08-20T17:39:08.912Z,6.80
2018-08-20T17:41:40.486Z,7.00
2018-08-20T17:44:09.524Z,6.60
2018-08-20T17:46:39.249Z,7.17
2018-08-20T17:49:10.837Z,6.50
2018-08-20T17:51:39.860Z,6.40
2018-08-20T17:54:09.198Z,7.50
2018-08-20T17:56:37.485Z,7.27
2018-08-20T17:59:12.462Z,6.30
2018-08-20T18:01:41.560Z,7.30
2018-08-20T18:04:10.235Z,6.50
2018-08-20T18:06:55.062Z,7.30
2018-08-20T18:09:22.951Z,7.00
2018-08-20T18:11:53.096Z,6.90
2018-08-20T18:14:22.302Z,6.77
2018-08-20T18:16:50.318Z,6.60
2018-08-20T18:19:34.932Z,6.63
2018-08-20T18:22:03.231Z,6.47
2018-08-20T18:24:31.264Z,6.77
2018-08-20T18:26:59.791Z,6.57
2018-08-20T18:29:27.908Z,7.10
2018-08-20T18:32:00.184Z,7.53
2018-08-20T18:34:28.145Z,6.97
2018-08-20T18:36:56.250Z,6.57
2018-08-20T18:39:28.220Z,6.90
2018-08-20T18:41:58.606Z,7.27
2018-08-20T18:44:26.771Z,6.60
2018-08-20T18:46:54.884Z,6.30
2018-08-20T18:49:23.457Z,6.60
2018-08-20T18:51:57.023Z,7.50
2018-08-20T18:54:26.231Z,7.43
2018-08-20T18:56:58.843Z,7.67
2018-08-20T18:59:26.783Z,6.90
2018-08-20T19:01:55.182Z,7.53
2018-08-20T19:04:23.286Z,7.80
2018-08-20T19:06:56.852Z,8.23
2018-08-20T19:09:26.892Z,7.40
2018-08-20T19:11:54.867Z,7.47
2018-08-20T19:14:23.036Z,7.50
2018-08-20T19:16:51.169Z,7.43
2018-08-20T19:19:19.225Z,7.53
2018-08-20T19:21:47.299Z,8.27
2018-08-20T19:24:15.627Z,8.20
2018-08-20T19:26:43.637Z,7.83
2018-08-20T19:29:30.360Z,8.20
2018-08-20T19:31:58.350Z,8.77
2018-08-20T19:34:26.320Z,7.60
2018-08-20T19:36:54.389Z,8.20
2018-08-20T19:39:23.666Z,8.20
2018-08-20T19:41:51.414Z,8.40
2018-08-20T19:44:19.086Z,7.50
2018-08-20T19:46:46.861Z,7.93
2018-08-20T19:49:15.202Z,8.13
2018-08-20T19:51:44.068Z,8.20
2018-08-20T19:54:13.764Z,7.53
2018-08-20T19:56:41.404Z,7.47
2018-08-20T19:59:10.769Z,7.50
2018-08-20T20:01:39.703Z,8.00
2018-08-20T20:04:13.070Z,7.10
2018-08-20T20:06:41.849Z,7.13
2018-08-20T20:09:11.117Z,7.20
2018-08-20T20:11:45.541Z,7.20
2018-08-20T20:14:13.741Z,8.33
2018-08-20T20:16:47.364Z,7.50
2018-08-20T20:19:15.537Z,8.13
2018-08-20T20:21:43.698Z,7.60
2018-08-20T20:24:12.356Z,7.30
2018-08-20T20:26:40.932Z,8.40
2018-08-20T20:29:10.346Z,7.60
2018-08-20T20:31:40.205Z,7.27
2018-08-20T20:34:09.245Z,7.83
2018-08-20T20:36:38.526Z,7.37
2018-08-20T20:39:10.310Z,7.60
2018-08-20T20:41:39.048Z,7.77
2018-08-20T20:44:08.701Z,7.07
2018-08-20T20:46:38.296Z,7.67
2018-08-20T20:49:07.258Z,7.03
2018-08-20T20:51:44.770Z,6.83
2018-08-20T20:54:12.768Z,7.00
2018-08-20T20:56:40.840Z,6.80
2018-08-20T20:59:09.032Z,7.10
2018-08-20T21:01:37.609Z,7.50
2018-08-20T21:04:07.751Z,6.73
2018-08-20T21:06:40.235Z,7.17
2018-08-20T21:09:12.100Z,7.33
2018-08-20T21:11:40.460Z,7.23
2018-08-20T21:14:08.751Z,7.60
2018-08-20T21:16:38.346Z,8.10
2018-08-20T21:19:07.043Z,8.10
2018-08-20T21:21:36.800Z,8.53
2018-08-20T21:24:08.154Z,7.80
2018-08-20T21:29:22.966Z,7.93
2018-08-20T21:31:50.587Z,8.23
2018-08-20T21:34:18.454Z,7.60
2018-08-20T21:36:46.129Z,7.33
2018-08-20T21:39:13.655Z,7.63
2018-08-20T21:41:41.274Z,8.73
2018-08-20T21:44:09.059Z,8.37
2018-08-20T21:46:36.804Z,9.03
2018-08-20T21:49:05.548Z,8.53
2018-08-20T21:51:41.703Z,8.53
2018-08-20T21:54:09.412Z,9.10
2018-08-20T21:56:47.859Z,8.40
2018-08-20T21:59:15.411Z,8.30
2018-08-20T22:01:43.424Z,8.23
2018-08-20T22:04:20.020Z,9.27
2018-08-20T22:06:48.199Z,10.13
2018-08-20T22:09:15.756Z,9.07
2018-08-20T22:11:43.363Z,8.57
2018-08-20T22:14:10.963Z,9.87
2018-08-20T22:16:38.843Z,9.57
2018-08-20T22:19:06.737Z,9.43
2018-08-20T22:21:34.668Z,9.00
2018-08-20T22:24:03.080Z,9.73
2018-08-20T22:26:30.731Z,9.23
2018-08-20T22:28:58.652Z,9.43
2018-08-20T22:31:26.209Z,8.13
2018-08-20T22:34:00.595Z,9.07
2018-08-20T22:36:29.488Z,8.60
2018-08-20T22:38:59.172Z,9.20
2018-08-20T22:41:27.834Z,9.47
2018-08-20T22:43:55.356Z,9.03
2018-08-20T22:46:23.654Z,9.27
2018-08-20T22:48:52.586Z,9.17
2018-08-20T22:51:20.887Z,9.37
2018-08-20T22:53:49.761Z,9.47
2018-08-20T22:56:23.783Z,9.30
2018-08-20T22:58:51.710Z,8.97
2018-08-20T23:01:19.382Z,9.50
2018-08-20T23:03:46.973Z,8.90
2018-08-20T23:06:14.604Z,9.17
2018-08-20T23:08:42.361Z,8.63
2018-08-20T23:11:10.068Z,9.73
2018-08-20T23:13:37.724Z,8.73
2018-08-20T23:16:05.486Z,9.37
2018-08-20T23:18:33.575Z,9.10
2018-08-20T23:21:01.136Z,9.30
2018-08-20T23:23:34.169Z,8.80
2018-08-20T23:26:05.512Z,9.30
2018-08-20T23:28:34.388Z,8.97
2018-08-20T23:31:02.549Z,8.53
2018-08-20T23:33:31.204Z,8.83
2018-08-20T23:35:59.001Z,8.57
2018-08-20T23:38:29.158Z,9.00
2018-08-20T23:40:59.370Z,9.10
2018-08-20T23:43:27.867Z,9.23
2018-08-20T23:45:56.020Z,8.40
2018-08-20T23:48:24.669Z,9.00
2018-08-20T23:50:58.400Z,8.60
2018-08-20T23:53:33.465Z,8.60
2018-08-20T23:56:01.610Z,8.40
2018-08-20T23:58:29.566Z,8.57
